Time;durP1;ratioP1;P1;durP2;ratioP2;P2;SDS_P1;SDS_P2;PMS_P1;PMS_P2;Temp;Humidity;BMP_temperature;BMP_pressure;BME280_temperature;BME280_humidity;BME280_pressure;Samples;Min_cycle;Max_cycle;Signal;HPM_P1;HPM_P2
2022/01/17 00:00:33;;;;;;;391.95;281.65;;;;;;;24.04;39.73;103409.53;5126065;27;20109;-46
2022/01/17 00:03:01;;;;;;;385.63;281.77;;;;;;;24.01;39.50;103400.63;5126036;27;20039;-45
2022/01/17 00:05:30;;;;;;;398.85;285.70;;;;;;;23.98;39.91;103396.13;5125668;27;20117;-45
2022/01/17 00:07:58;;;;;;;383.50;286.02;;;;;;;23.94;39.67;103404.63;5125858;27;20491;-45
2022/01/17 00:10:27;;;;;;;391.73;281.85;;;;;;;23.94;39.82;103400.25;5125946;27;20146;-45
2022/01/17 00:12:58;;;;;;;379.02;279.80;;;;;;;23.93;39.69;103406.31;5124822;27;20405;-45
2022/01/17 00:15:42;;;;;;;391.60;287.58;;;;;;;23.96;39.97;103411.75;5125586;27;20023;-44
2022/01/17 00:20:40;;;;;;;402.88;290.33;;;;;;;23.99;39.42;103412.75;5125809;27;20035;-44
2022/01/17 00:23:08;;;;;;;392.30;288.17;;;;;;;24.00;39.75;103409.31;5107181;27;20452;-44
2022/01/17 00:25:37;;;;;;;389.67;283.23;;;;;;;23.92;39.51;103411.50;5125007;27;20038;-44
2022/01/17 00:28:05;;;;;;;383.45;279.98;;;;;;;23.86;39.82;103401.59;5125235;27;20031;-45
2022/01/17 00:30:33;;;;;;;391.27;292.83;;;;;;;23.93;39.45;103408.06;5125460;27;20480;-45
2022/01/17 00:33:02;;;;;;;388.60;282.98;;;;;;;23.88;39.70;103399.97;5125805;27;20027;-45
2022/01/17 00:35:31;;;;;;;395.27;287.48;;;;;;;23.84;40.03;103400.63;5125310;27;20038;-45
2022/01/17 00:37:59;;;;;;;394.58;289.15;;;;;;;23.89;40.05;103409.63;5125267;27;20031;-45
2022/01/17 00:40:28;;;;;;;399.63;288.83;;;;;;;23.85;39.87;103399.78;5125040;27;20030;-45
2022/01/17 00:42:56;;;;;;;397.30;289.98;;;;;;;23.86;39.68;103398.97;5125181;27;20031;-45
2022/01/17 00:45:27;;;;;;;384.25;285.17;;;;;;;23.87;39.70;103402.50;5124954;27;20511;-45
2022/01/17 00:47:58;;;;;;;396.67;291.52;;;;;;;23.80;40.11;103402.19;5125224;27;20031;-45
2022/01/17 00:50:27;;;;;;;400.98;293.27;;;;;;;23.81;40.03;103396.13;5124622;27;20027;-45
2022/01/17 00:52:56;;;;;;;388.48;289.58;;;;;;;23.87;39.68;103402.50;5124611;27;20436;-45
2022/01/17 00:55:25;;;;;;;400.67;298.90;;;;;;;23.66;39.98;103366.50;5124576;27;20055;-44
2022/01/17 00:57:53;;;;;;;401.15;293.30;;;;;;;23.83;39.74;103397.06;5124797;27;20388;-45
2022/01/17 01:00:21;;;;;;;401.95;292.80;;;;;;;23.87;39.91;103410.34;5125185;27;20043;-45
2022/01/17 01:02:49;;;;;;;390.38;288.95;;;;;;;23.82;39.79;103407.50;5124842;27;20033;-45
2022/01/17 01:05:18;;;;;;;393.08;287.48;;;;;;;23.83;40.06;103402.31;5124446;27;20034;-44
2022/01/17 01:07:46;;;;;;;406.13;300.02;;;;;;;23.81;39.81;103406.63;5124785;27;20531;-45
2022/01/17 01:10:15;;;;;;;406.67;300.33;;;;;;;23.85;39.63;103404.13;5123687;27;20472;-45
2022/01/17 01:12:46;;;;;;;395.83;291.58;;;;;;;23.83;39.94;103407.56;5124024;27;20492;-44
2022/01/17 01:16:08;;;;;;;389.50;289.83;;;;;;;23.77;39.80;103406.34;5123709;27;20055;-45
2022/01/17 01:18:19;;;;;;;391.95;295.20;;;;;;;23.75;40.10;103401.03;5123913;27;20088;-45
2022/01/17 01:21:06;;;;;;;396.83;295.95;;;;;;;23.76;40.07;103400.22;5124132;27;20031;-44
2022/01/17 01:29:09;;;;;;;398.02;292.90;;;;;;;23.80;39.71;103399.56;5115226;27;20043;-44
2022/01/17 01:31:44;;;;;;;393.23;289.67;;;;;;;23.74;39.74;103400.97;5124573;27;20031;-45
2022/01/17 01:34:13;;;;;;;410.20;298.35;;;;;;;23.79;39.93;103404.72;5124256;27;20065;-45
2022/01/17 01:36:42;;;;;;;402.00;296.05;;;;;;;23.77;39.88;103401.09;5123856;27;20468;-45
2022/01/17 01:39:11;;;;;;;390.90;293.80;;;;;;;23.74;39.68;103406.22;5105820;27;20142;-45
2022/01/17 01:41:43;;;;;;;406.05;295.50;;;;;;;23.77;40.01;103404.63;5124405;27;20175;-45
2022/01/17 01:44:14;;;;;;;408.65;299.45;;;;;;;23.75;40.21;103400.13;5123940;27;20528;-45
2022/01/17 01:46:43;;;;;;;404.33;297.95;;;;;;;23.71;39.95;103403.41;5105938;27;20092;-44
2022/01/17 01:49:13;;;;;;;397.40;297.00;;;;;;;23.72;39.64;103390.38;5124056;27;20060;-45
2022/01/17 01:51:41;;;;;;;397.30;293.50;;;;;;;23.70;40.03;103393.75;5123777;27;20490;-45
2022/01/17 01:54:10;;;;;;;404.00;297.98;;;;;;;23.68;39.91;103398.91;5124105;27;20031;-43
2022/01/17 01:56:40;;;;;;;397.60;289.92;;;;;;;23.72;40.35;103397.38;5124120;27;20027;-45
2022/01/17 01:59:09;;;;;;;385.17;285.40;;;;;;;23.73;39.93;103391.31;5123415;28;20031;-45
2022/01/17 02:01:38;;;;;;;401.58;292.45;;;;;;;23.72;39.72;103386.88;5124241;28;20112;-46
2022/01/17 02:04:07;;;;;;;397.10;297.30;;;;;;;23.68;39.96;103391.03;5125304;27;20100;-45
2022/01/17 02:06:35;;;;;;;397.50;293.38;;;;;;;23.71;39.75;103385.06;5109741;27;20027;-45
2022/01/17 02:09:05;;;;;;;398.30;293.90;;;;;;;23.69;40.09;103376.22;5128090;27;20396;-45
2022/01/17 02:11:34;;;;;;;394.33;293.25;;;;;;;23.74;39.65;103378.25;5127776;27;20148;-45
2022/01/17 02:14:02;;;;;;;399.08;293.70;;;;;;;23.70;39.80;103381.53;5128470;27;20322;-45
2022/01/17 02:16:31;;;;;;;404.17;295.58;;;;;;;23.69;39.78;103379.72;5128108;27;20023;-45
2022/01/17 02:19:00;;;;;;;403.75;295.92;;;;;;;23.68;40.20;103383.16;5127866;27;20023;-45
2022/01/17 02:23:59;;;;;;;419.30;301.05;;;;;;;23.64;39.95;103389.09;5128470;27;20035;-45
2022/01/17 02:26:29;;;;;;;404.13;303.55;;;;;;;23.67;39.98;103392.78;5128164;27;20035;-45
2022/01/17 02:28:57;;;;;;;403.17;293.73;;;;;;;23.62;40.20;103399.47;5128046;27;20062;-45
2022/01/17 02:31:26;;;;;;;397.75;296.17;;;;;;;23.60;39.92;103405.47;5128121;27;20471;-46
2022/01/17 02:33:55;;;;;;;399.40;296.42;;;;;;;23.65;40.20;103404.00;5127435;27;20057;-45
2022/01/17 02:36:24;;;;;;;397.75;297.30;;;;;;;23.64;40.00;103405.69;5127866;27;20412;-45
2022/01/17 02:38:53;;;;;;;414.48;301.23;;;;;;;23.67;39.91;103410.19;5127388;27;20420;-45
2022/01/17 02:41:21;;;;;;;409.50;294.48;;;;;;;23.63;40.21;103419.63;5127107;27;20407;-45
2022/01/17 02:43:50;;;;;;;400.67;295.83;;;;;;;23.61;40.06;103416.00;5127411;27;20428;-45
2022/01/17 02:46:27;;;;;;;405.90;297.05;;;;;;;23.64;39.90;103416.19;5127774;27;20038;-46
2022/01/17 02:48:57;;;;;;;404.90;297.63;;;;;;;23.62;40.07;103415.19;5127345;27;20037;-45
2022/01/17 02:51:26;;;;;;;407.55;300.15;;;;;;;23.66;40.22;103414.56;5127414;27;20114;-45
2022/01/17 02:53:57;;;;;;;397.05;295.30;;;;;;;23.65;39.98;103412.75;5126478;27;20117;-45
2022/01/17 02:56:26;;;;;;;403.83;296.33;;;;;;;23.64;40.08;103413.56;5127534;27;20039;-45
2022/01/17 02:58:55;;;;;;;401.25;295.58;;;;;;;23.60;39.83;103415.94;5127419;27;20106;-45
2022/01/17 03:01:26;;;;;;;396.73;290.13;;;;;;;23.54;40.19;103410.38;5126830;27;20023;-45
2022/01/17 03:03:56;;;;;;;400.42;297.67;;;;;;;23.61;39.86;103405.53;5127197;27;20027;-45
2022/01/17 03:06:25;;;;;;;408.05;301.77;;;;;;;23.59;40.12;103424.63;5126795;27;20030;-45
2022/01/17 03:08:53;;;;;;;408.67;303.73;;;;;;;23.58;39.86;103423.72;5126734;27;20303;-44
2022/01/17 03:11:24;;;;;;;411.17;301.17;;;;;;;23.59;39.79;103415.03;5127149;27;20915;-45
2022/01/17 03:13:53;;;;;;;404.58;295.13;;;;;;;23.62;39.97;103419.56;5092866;27;20122;-45
2022/01/17 03:16:34;;;;;;;417.83;299.63;;;;;;;23.61;40.27;103417.75;5125916;27;20030;-45
2022/01/17 03:19:03;;;;;;;409.27;297.40;;;;;;;23.60;40.16;103426.44;5127174;27;20031;-45
2022/01/17 03:21:32;;;;;;;418.20;307.10;;;;;;;23.57;40.28;103431.50;5126886;27;20065;-45
2022/01/17 03:24:00;;;;;;;401.02;299.33;;;;;;;23.53;39.91;103430.44;5126780;27;20084;-45
2022/01/17 03:26:30;;;;;;;416.75;304.33;;;;;;;23.59;40.16;103425.50;5126679;27;20034;-45
2022/01/17 03:29:00;;;;;;;396.08;294.15;;;;;;;23.54;39.92;103416.53;5109029;27;20053;-45
2022/01/17 03:31:29;;;;;;;402.65;300.15;;;;;;;23.44;40.00;103412.50;5126638;27;20106;-45
2022/01/17 03:33:58;;;;;;;400.90;296.48;;;;;;;23.53;39.98;103430.44;5126566;27;20392;-44
2022/01/17 03:36:26;;;;;;;394.35;294.63;;;;;;;23.53;40.15;103422.59;5126398;27;20434;-45
2022/01/17 03:38:56;;;;;;;412.30;299.70;;;;;;;23.49;40.49;103425.84;5125539;27;20027;-45
2022/01/17 03:41:25;;;;;;;406.10;295.83;;;;;;;23.58;40.22;103423.72;5125606;27;20417;-45
2022/01/17 03:43:53;;;;;;;405.42;297.25;;;;;;;23.55;39.91;103425.28;5125405;27;20034;-45
2022/01/17 03:46:21;;;;;;;402.15;297.17;;;;;;;23.52;40.26;103423.41;5126010;27;20039;-45
2022/01/17 03:48:50;;;;;;;419.33;306.70;;;;;;;23.56;40.28;103427.06;5125985;27;20031;-44
2022/01/17 03:51:19;;;;;;;409.70;298.70;;;;;;;23.55;40.30;103423.56;5126025;27;20387;-45
2022/01/17 03:53:46;;;;;;;408.25;304.00;;;;;;;23.50;39.95;103415.44;5126265;27;20075;-45
2022/01/17 03:56:15;;;;;;;415.83;306.77;;;;;;;23.54;39.92;103411.28;5126003;27;20031;-45
2022/01/17 03:58:44;;;;;;;416.67;303.20;;;;;;;23.50;40.08;103420.69;5126164;27;20439;-45
2022/01/17 04:01:13;;;;;;;413.88;301.83;;;;;;;23.52;40.06;103424.28;5126153;27;20877;-44
2022/01/17 04:03:41;;;;;;;408.63;304.25;;;;;;;23.54;40.10;103420.84;5098138;27;20388;-45
2022/01/17 04:06:10;;;;;;;422.15;311.73;;;;;;;23.45;40.39;103423.88;5125820;27;20027;-45
2022/01/17 04:08:38;;;;;;;408.27;303.27;;;;;;;23.54;40.17;103424.38;5126099;27;20031;-44
2022/01/17 04:11:06;;;;;;;420.92;307.80;;;;;;;23.51;40.37;103427.72;5126041;27;20020;-45
2022/01/17 04:13:35;;;;;;;413.73;309.80;;;;;;;23.55;40.47;103425.28;5125780;27;20350;-45
2022/01/17 04:16:04;;;;;;;419.35;308.92;;;;;;;23.53;39.94;103419.97;5125419;27;20168;-45
2022/01/17 04:18:33;;;;;;;420.92;309.17;;;;;;;23.53;39.98;103425.19;5125783;27;20031;-45
2022/01/17 04:21:03;;;;;;;409.38;306.05;;;;;;;23.51;40.40;103429.44;5125754;27;20027;-45
2022/01/17 04:23:31;;;;;;;423.35;315.10;;;;;;;23.48;40.20;103427.59;5125789;27;20031;-45
2022/01/17 04:26:00;;;;;;;424.83;313.13;;;;;;;23.50;40.47;103428.53;5125502;27;20361;-45
2022/01/17 04:28:29;;;;;;;417.77;313.25;;;;;;;23.46;40.60;103439.69;5106629;27;20023;-45
2022/01/17 04:30:59;;;;;;;426.83;313.05;;;;;;;23.52;40.50;103442.63;5125881;27;20027;-45
2022/01/17 04:33:27;;;;;;;427.75;317.08;;;;;;;23.50;40.23;103431.16;5125318;27;20027;-45
2022/01/17 04:35:55;;;;;;;422.70;313.10;;;;;;;23.49;40.15;103442.47;5107100;27;20072;-45
2022/01/17 04:38:23;;;;;;;424.17;316.40;;;;;;;23.46;40.37;103446.63;5125187;27;20425;-45
2022/01/17 04:41:01;;;;;;;418.58;315.55;;;;;;;23.51;40.54;103443.44;5125428;27;20525;-45
2022/01/17 04:46:07;;;;;;;433.35;318.77;;;;;;;23.48;40.52;103448.53;5125154;27;20031;-45
2022/01/17 04:48:35;;;;;;;431.42;319.13;;;;;;;23.47;40.77;103446.75;5125152;27;20027;-45
2022/01/17 04:51:04;;;;;;;436.20;321.30;;;;;;;23.44;40.81;103446.56;5125110;27;20045;-45
2022/01/17 04:53:33;;;;;;;417.20;307.17;;;;;;;23.49;40.64;103446.81;5124846;27;20080;-45
2022/01/17 04:56:02;;;;;;;424.15;315.83;;;;;;;23.47;40.64;103437.97;5124693;27;20530;-45
2022/01/17 04:58:31;;;;;;;418.42;312.50;;;;;;;23.49;40.26;103436.31;5125183;27;20023;-44
2022/01/17 05:00:59;;;;;;;431.83;316.17;;;;;;;23.53;40.68;103440.91;5098674;27;20361;-44
2022/01/17 05:03:27;;;;;;;437.77;320.38;;;;;;;23.47;40.65;103444.13;5124937;27;20031;-45
2022/01/17 05:05:57;;;;;;;431.10;324.00;;;;;;;23.47;40.31;103440.56;5124278;27;20486;-45
2022/01/17 05:08:25;;;;;;;431.63;320.05;;;;;;;23.51;40.63;103438.19;5124965;27;20361;-44
2022/01/17 05:10:55;;;;;;;426.00;319.98;;;;;;;23.49;40.58;103436.31;5124165;27;20046;-44
2022/01/17 05:13:31;;;;;;;433.92;321.55;;;;;;;23.47;40.23;103436.25;5124593;27;20055;-45
2022/01/17 05:16:13;;;;;;;433.60;324.63;;;;;;;23.43;40.46;103426.41;5124206;27;20031;-45
2022/01/17 05:21:10;;;;;;;434.30;326.15;;;;;;;23.41;40.68;103432.41;5124983;27;20030;-45
2022/01/17 05:23:40;;;;;;;434.52;324.42;;;;;;;23.43;40.82;103439.53;5124552;27;20218;-45
2022/01/17 05:26:09;;;;;;;435.50;319.35;;;;;;;23.43;40.95;103439.53;5124598;27;20035;-45
2022/01/17 05:28:37;;;;;;;437.67;320.25;;;;;;;23.40;40.53;103439.34;5124728;27;20027;-45
2022/01/17 05:31:06;;;;;;;440.35;324.52;;;;;;;23.40;40.85;103435.84;5124585;27;20030;-45
2022/01/17 05:33:35;;;;;;;434.63;325.02;;;;;;;23.41;40.80;103437.66;5123689;27;20034;-45
2022/01/17 05:36:03;;;;;;;444.50;329.70;;;;;;;23.45;40.83;103436.97;5105670;27;20047;-45
2022/01/17 05:38:32;;;;;;;436.70;323.48;;;;;;;23.46;40.54;103430.91;5124189;27;20118;-45
2022/01/17 05:41:01;;;;;;;432.45;327.38;;;;;;;23.45;40.55;103435.25;5124492;27;20034;-45
2022/01/17 05:43:29;;;;;;;435.95;327.33;;;;;;;23.48;40.42;103435.44;5106522;27;20050;-45
2022/01/17 05:45:58;;;;;;;439.83;327.65;;;;;;;23.45;40.44;103426.50;5124237;27;20035;-45
2022/01/17 05:48:26;;;;;;;439.95;329.27;;;;;;;23.43;40.88;103422.88;5124162;27;20042;-45
2022/01/17 05:50:55;;;;;;;441.58;331.05;;;;;;;23.40;40.93;103423.63;5124106;27;20045;-45
2022/01/17 05:53:22;;;;;;;439.83;331.02;;;;;;;23.44;40.55;103436.09;5105961;27;20059;-44
2022/01/17 05:55:51;;;;;;;447.75;332.27;;;;;;;23.44;40.61;103435.16;5124189;27;20072;-45
2022/01/17 05:58:20;;;;;;;438.52;332.13;;;;;;;23.41;41.00;103437.66;5124330;27;20031;-44
2022/01/17 06:00:48;;;;;;;442.98;327.92;;;;;;;23.45;40.96;103436.97;5091464;28;20426;-45
2022/01/17 06:03:17;;;;;;;438.05;330.23;;;;;;;23.45;40.64;103431.72;5123690;28;20027;-45
2022/01/17 06:05:46;;;;;;;429.85;323.50;;;;;;;23.47;40.86;103441.50;5123880;28;20035;-45
2022/01/17 06:08:13;;;;;;;443.05;331.10;;;;;;;23.45;41.02;103440.50;5124097;28;20023;-45
2022/01/17 06:10:42;;;;;;;449.80;337.85;;;;;;;23.39;40.85;103427.06;5123751;28;20027;-45
2022/01/17 06:13:10;;;;;;;449.95;334.23;;;;;;;23.42;40.73;103442.03;5122594;28;20062;-46
2022/01/17 06:15:38;;;;;;;440.08;328.98;;;;;;;23.44;40.92;103450.88;5122695;28;20483;-45
2022/01/17 06:18:06;;;;;;;445.35;328.25;;;;;;;23.45;40.92;103450.06;5123862;28;20142;-45
2022/01/17 06:20:35;;;;;;;441.80;333.42;;;;;;;23.41;40.59;103442.88;5123684;28;20035;-45
2022/01/17 06:23:03;;;;;;;439.92;329.98;;;;;;;23.43;40.90;103451.69;5124068;28;20026;-45
2022/01/17 06:25:32;;;;;;;441.88;330.60;;;;;;;23.44;40.78;103446.56;5105687;28;20034;-45
2022/01/17 06:28:01;;;;;;;438.63;334.52;;;;;;;23.47;40.90;103451.97;5123816;28;20384;-45
2022/01/17 06:30:29;;;;;;;436.73;325.35;;;;;;;23.47;40.87;103457.22;5123567;28;20027;-46
2022/01/17 06:32:58;;;;;;;434.70;330.83;;;;;;;23.49;40.66;103452.97;5123403;28;20159;-46
2022/01/17 06:35:26;;;;;;;438.33;327.90;;;;;;;23.49;40.50;103445.09;5123487;28;20198;-44
2022/01/17 06:37:55;;;;;;;437.00;322.75;;;;;;;23.54;40.41;103457.53;5123859;28;20034;-44
2022/01/17 06:40:23;;;;;;;432.00;325.17;;;;;;;23.50;40.75;103461.72;5123935;28;20031;-44
2022/01/17 06:42:52;;;;;;;435.88;317.48;;;;;;;23.50;40.41;103465.22;5123551;28;20035;-45
2022/01/17 06:45:21;;;;;;;429.58;320.02;;;;;;;23.55;40.50;103467.19;5123286;28;20045;-45
2022/01/17 06:47:49;;;;;;;440.90;326.85;;;;;;;23.54;40.74;103475.88;5123195;28;20488;-45
2022/01/17 06:50:18;;;;;;;429.42;317.10;;;;;;;23.56;40.47;103489.97;5123265;27;20506;-45
2022/01/17 06:52:46;;;;;;;421.92;321.77;;;;;;;23.55;40.69;103481.22;5126863;27;20041;-46
2022/01/17 06:55:14;;;;;;;435.60;324.23;;;;;;;23.54;40.83;103482.03;5127569;27;20476;-45
2022/01/17 06:57:43;;;;;;;438.02;324.95;;;;;;;23.57;40.81;103491.75;5127659;27;20095;-46
2022/01/17 07:00:12;;;;;;;433.25;323.77;;;;;;;23.55;40.83;103486.44;5109176;27;20027;-45
2022/01/17 07:02:41;;;;;;;431.13;322.10;;;;;;;23.53;40.80;103488.09;5127274;27;20102;-45
2022/01/17 07:05:09;;;;;;;435.40;326.55;;;;;;;23.58;40.84;103485.72;5098863;27;20266;-44
2022/01/17 07:07:38;;;;;;;432.30;327.55;;;;;;;23.54;40.92;103484.66;5126972;27;20045;-46
2022/01/17 07:10:06;;;;;;;441.90;325.60;;;;;;;23.55;40.92;103494.31;5126715;27;20033;-45
2022/01/17 07:12:36;;;;;;;441.92;329.35;;;;;;;23.60;40.54;103512.91;5127093;27;20047;-45
2022/01/17 07:15:09;;;;;;;443.20;326.83;;;;;;;23.64;40.85;103533.22;5126989;27;20134;-45
2022/01/17 07:17:38;;;;;;;433.90;325.75;;;;;;;23.66;40.45;103542.06;5126802;27;20062;-45
2022/01/17 07:20:06;;;;;;;436.92;320.88;;;;;;;23.59;40.98;103553.91;5127280;27;20410;-45
2022/01/17 07:22:35;;;;;;;440.33;324.58;;;;;;;23.58;40.67;103565.19;5108046;27;20030;-46
2022/01/17 07:25:04;;;;;;;440.17;329.02;;;;;;;23.62;40.64;103568.91;5108205;27;20047;-45
2022/01/17 07:27:32;;;;;;;439.23;328.38;;;;;;;23.59;40.57;103551.28;5127476;27;20115;-46
2022/01/17 07:30:00;;;;;;;437.25;324.08;;;;;;;23.63;40.59;103547.13;5126718;27;20033;-45
2022/01/17 07:32:29;;;;;;;448.90;326.98;;;;;;;23.64;40.91;103533.22;5126801;27;20039;-45
2022/01/17 07:34:57;;;;;;;435.58;326.17;;;;;;;23.68;40.67;103522.06;5126584;27;20431;-45
2022/01/17 07:37:25;;;;;;;431.13;321.80;;;;;;;23.65;40.65;103519.31;5126525;27;20023;-45
2022/01/17 07:39:54;;;;;;;442.95;330.10;;;;;;;23.66;40.69;103505.38;5107775;27;20038;-46
2022/01/17 07:42:22;;;;;;;435.85;328.50;;;;;;;23.67;40.75;103523.81;5126319;27;20039;-45
2022/01/17 07:44:54;;;;;;;440.55;333.17;;;;;;;23.64;40.78;103528.88;5126367;27;20218;-45
2022/01/17 07:47:40;;;;;;;438.90;326.80;;;;;;;23.63;40.58;103527.06;5126187;27;20086;-45
2022/01/17 07:50:12;;;;;;;433.17;323.83;;;;;;;23.62;40.65;103527.88;5126575;27;20031;-45
2022/01/17 07:52:40;;;;;;;431.13;325.25;;;;;;;23.58;40.77;103546.84;5125898;27;20959;-45
2022/01/17 07:55:09;;;;;;;438.70;327.65;;;;;;;23.60;40.69;103539.09;5126497;27;20039;-45
2022/01/17 07:57:39;;;;;;;448.05;328.75;;;;;;;23.63;40.96;103534.03;5108219;27;20023;-44
2022/01/17 08:00:09;;;;;;;430.88;322.30;;;;;;;23.60;40.97;103547.84;5107356;27;20442;-45
2022/01/17 08:02:37;;;;;;;451.33;333.08;;;;;;;23.64;41.12;103538.47;5108137;27;20031;-45
2022/01/17 08:05:07;;;;;;;432.65;324.23;;;;;;;23.66;40.64;103535.09;5126131;27;20054;-44
2022/01/17 08:07:36;;;;;;;430.08;317.27;;;;;;;23.63;40.94;103536.66;5125785;27;20395;-45
2022/01/17 08:10:07;;;;;;;439.80;326.15;;;;;;;23.59;40.70;103535.56;5125741;27;20069;-45
2022/01/17 08:12:36;;;;;;;441.67;334.95;;;;;;;23.63;41.19;103536.66;5124536;27;20062;-45
2022/01/17 08:15:05;;;;;;;440.45;325.65;;;;;;;23.65;40.80;103537.66;5125770;27;20066;-45
2022/01/17 08:17:34;;;;;;;432.85;318.50;;;;;;;23.64;40.76;103541.09;5125831;27;20037;-45
2022/01/17 08:20:03;;;;;;;421.52;314.83;;;;;;;23.70;40.68;103537.91;5125536;27;20038;-45
2022/01/17 08:22:31;;;;;;;437.27;325.23;;;;;;;23.65;40.79;103535.91;5125114;27;20066;-45
2022/01/17 08:25:00;;;;;;;438.27;322.20;;;;;;;23.62;40.92;103543.59;5125937;27;20030;-45
2022/01/17 08:27:29;;;;;;;434.52;324.63;;;;;;;23.68;40.83;103543.03;5125943;27;20471;-45
2022/01/17 08:29:58;;;;;;;426.95;317.88;;;;;;;23.67;41.16;103535.97;5125564;27;20059;-45
2022/01/17 08:32:29;;;;;;;430.42;319.05;;;;;;;23.65;40.88;103533.28;5124860;27;20046;-45
2022/01/17 08:34:58;;;;;;;426.10;319.13;;;;;;;23.67;40.93;103533.38;5125146;27;20030;-46
2022/01/17 08:37:27;;;;;;;434.25;325.08;;;;;;;23.70;41.09;103540.50;5125168;27;20056;-45
2022/01/17 08:39:55;;;;;;;438.70;327.63;;;;;;;23.71;40.81;103537.97;5124510;27;20034;-45
2022/01/17 08:42:24;;;;;;;441.65;326.13;;;;;;;23.69;41.08;103536.97;5124561;27;20293;-44
2022/01/17 08:44:53;;;;;;;438.90;327.50;;;;;;;23.70;40.87;103543.13;5124692;27;20038;-45
2022/01/17 08:47:21;;;;;;;436.17;326.10;;;;;;;23.73;41.09;103545.94;5125587;27;20030;-45
2022/01/17 08:49:50;;;;;;;438.50;327.20;;;;;;;23.71;41.13;103540.59;5125341;27;20036;-45
2022/01/17 08:52:20;;;;;;;430.30;324.08;;;;;;;23.70;40.95;103545.75;5125513;27;20492;-45
2022/01/17 08:54:49;;;;;;;441.02;326.80;;;;;;;23.70;40.95;103546.66;5124843;27;20053;-45
2022/01/17 08:57:17;;;;;;;444.25;329.98;;;;;;;23.69;40.85;103557.94;5106692;27;20027;-45
2022/01/17 08:59:46;;;;;;;442.13;332.95;;;;;;;23.75;41.01;103567.84;5089399;27;20031;-45
2022/01/17 09:02:14;;;;;;;440.73;331.23;;;;;;;23.70;41.25;103565.00;5106813;27;20031;-45
2022/01/17 09:04:43;;;;;;;439.95;333.27;;;;;;;23.70;41.03;103566.72;5124985;27;20027;-45
2022/01/17 09:07:13;;;;;;;444.70;332.70;;;;;;;23.75;40.81;103567.84;5125099;27;20106;-45
2022/01/17 09:09:43;;;;;;;446.55;332.38;;;;;;;23.75;40.95;103567.84;5125572;27;20528;-45
2022/01/17 09:12:13;;;;;;;439.38;330.42;;;;;;;23.70;40.89;103566.72;5106003;27;20164;-45
2022/01/17 09:14:41;;;;;;;452.52;336.35;;;;;;;23.75;40.81;103573.09;5124569;27;20033;-45
2022/01/17 09:17:11;;;;;;;443.08;333.95;;;;;;;23.72;41.12;103575.56;5124313;27;20114;-45
2022/01/17 09:19:41;;;;;;;437.90;328.95;;;;;;;23.68;41.17;103574.47;5124812;27;20034;-45
2022/01/17 09:22:10;;;;;;;447.98;336.65;;;;;;;23.72;41.07;103578.19;5124661;27;20391;-45
2022/01/17 09:24:40;;;;;;;446.90;334.40;;;;;;;23.69;41.37;103578.91;5124461;27;20031;-46
2022/01/17 09:27:10;;;;;;;434.70;324.58;;;;;;;23.69;41.35;103578.03;5124153;27;20031;-46
2022/01/17 09:29:37;;;;;;;441.55;331.77;;;;;;;23.71;41.14;103590.38;5124255;27;20292;-45
2022/01/17 09:32:06;;;;;;;440.42;330.23;;;;;;;23.70;41.29;103591.19;5099316;27;20038;-45
2022/01/17 09:34:33;;;;;;;441.10;329.45;;;;;;;23.67;41.14;103583.16;5124346;27;20023;-45
2022/01/17 09:37:01;;;;;;;443.48;327.45;;;;;;;23.71;41.04;103593.00;5124586;27;20470;-45
2022/01/17 09:39:30;;;;;;;434.90;330.33;;;;;;;23.73;41.04;103591.38;5124099;27;20042;-46
2022/01/17 09:41:59;;;;;;;421.75;319.25;;;;;;;23.77;40.79;103600.31;5124179;27;20031;-46
2022/01/17 09:44:27;;;;;;;431.67;322.50;;;;;;;23.76;41.16;103596.78;5124426;27;20495;-45
2022/01/17 09:46:57;;;;;;;428.85;319.35;;;;;;;23.81;40.74;103603.19;5124353;27;20031;-45
2022/01/17 09:49:35;;;;;;;428.02;312.70;;;;;;;23.64;41.19;103569.91;5124294;27;20031;-46
2022/01/17 09:52:14;;;;;;;429.02;316.27;;;;;;;23.82;41.06;103597.16;5124313;27;20507;-45
2022/01/17 09:54:44;;;;;;;408.23;305.08;;;;;;;23.81;40.57;103611.06;5123973;27;20031;-45
2022/01/17 09:57:13;;;;;;;417.45;308.63;;;;;;;23.82;40.94;103615.50;5124080;27;20520;-45
2022/01/17 09:59:42;;;;;;;420.40;308.25;;;;;;;23.82;40.93;103615.50;5124515;27;20434;-45
2022/01/17 10:02:13;;;;;;;407.90;297.92;;;;;;;23.84;40.44;103620.81;5124196;27;20035;-46
2022/01/17 10:04:42;;;;;;;400.88;294.13;;;;;;;23.86;40.67;103620.88;5123854;28;20034;-45
2022/01/17 10:07:10;;;;;;;397.13;294.75;;;;;;;23.90;40.73;103615.00;5123404;28;20599;-44
2022/01/17 10:09:41;;;;;;;393.50;288.33;;;;;;;23.93;40.74;103604.69;5123854;28;20519;-45
2022/01/17 10:12:13;;;;;;;395.33;289.98;;;;;;;23.87;40.89;103596.47;5123673;28;20071;-45
2022/01/17 10:14:43;;;;;;;380.63;278.48;;;;;;;23.94;40.64;103590.75;5105644;28;20031;-45
2022/01/17 10:17:16;;;;;;;387.58;283.45;;;;;;;23.91;40.33;103599.34;5123182;28;20038;-44
2022/01/17 10:19:45;;;;;;;367.85;269.75;;;;;;;23.92;40.11;103609.00;5124025;28;20138;-44
2022/01/17 10:22:18;;;;;;;384.83;273.60;;;;;;;23.95;40.59;103621.41;5123962;28;20122;-44
2022/01/17 10:24:59;;;;;;;373.35;275.05;;;;;;;23.98;40.04;103639.97;5105932;27;20118;-45
2022/01/17 10:27:50;;;;;;;363.67;259.98;;;;;;;24.06;40.03;103650.88;5093437;27;20388;-45
2022/01/17 10:30:38;;;;;;;355.50;251.20;;;;;;;24.07;39.84;103665.81;5127835;27;20039;-45
2022/01/17 10:36:00;;;;;;;332.60;245.68;;;;;;;24.08;39.99;103665.88;5119780;27;20108;-45
2022/01/17 10:38:28;;;;;;;346.45;245.93;;;;;;;24.10;39.59;103668.56;5127772;27;20066;-46
2022/01/17 10:41:01;;;;;;;345.10;246.63;;;;;;;24.08;40.27;103668.50;5102599;27;20449;-46
2022/01/17 10:43:34;;;;;;;342.63;244.48;;;;;;;24.09;39.76;103659.81;5127313;27;20397;-47
2022/01/17 10:46:06;;;;;;;330.95;237.45;;;;;;;24.12;39.87;103662.63;5127516;27;20612;-46
2022/01/17 10:48:38;;;;;;;340.52;243.77;;;;;;;24.17;39.60;103654.06;5127833;27;20023;-47
2022/01/17 10:51:08;;;;;;;332.75;241.00;;;;;;;24.16;39.91;103649.66;5127935;27;20114;-44
2022/01/17 10:53:39;;;;;;;328.90;238.45;;;;;;;24.22;39.44;103652.59;5127109;27;20469;-46
2022/01/17 10:56:10;;;;;;;337.08;241.50;;;;;;;24.22;39.82;103655.22;5127225;27;20027;-45
2022/01/17 10:58:39;;;;;;;329.77;238.73;;;;;;;24.23;39.54;103649.16;5127291;27;20879;-46
2022/01/17 11:01:13;;;;;;;343.65;242.23;;;;;;;24.22;39.78;103650.91;5127251;27;20026;-45
2022/01/17 11:03:44;;;;;;;330.17;238.60;;;;;;;24.30;39.42;103646.06;5127119;27;20030;-45
2022/01/17 11:06:15;;;;;;;338.80;238.95;;;;;;;24.21;40.04;103656.06;5127439;27;20035;-44
2022/01/17 11:08:46;;;;;;;331.20;233.90;;;;;;;24.22;39.72;103653.53;5126078;27;20484;-44
2022/01/17 11:11:15;;;;;;;326.27;235.05;;;;;;;24.29;39.76;103639.03;5126383;27;20035;-46
2022/01/17 11:13:45;;;;;;;326.73;233.35;;;;;;;24.26;39.29;103637.13;5125763;27;20453;-45
2022/01/17 11:16:14;;;;;;;315.02;223.68;;;;;;;24.30;39.33;103639.91;5108809;27;20023;-45
2022/01/17 11:18:45;;;;;;;304.75;214.48;;;;;;;24.28;39.54;103639.84;5126680;27;20548;-45
2022/01/17 11:21:17;;;;;;;287.67;212.40;;;;;;;24.30;39.06;103632.97;5126826;27;20031;-45
2022/01/17 11:23:47;;;;;;;285.48;205.05;;;;;;;24.36;39.15;103624.50;5126633;27;20844;-44